Time;durP1;ratioP1;P1;durP2;ratioP2;P2;SDS_P1;SDS_P2;PMS_P1;PMS_P2;Temp;Humidity;BMP_temperature;BMP_pressure;BME280_temperature;BME280_humidity;BME280_pressure;Samples;Min_cycle;Max_cycle;Signal;HPM_P1;HPM_P2
2023/04/29 00:00:46;;;;;;;27.33;10.73;;;9.70;99.90;;;;;;5045914;28;20056;-71
2023/04/29 00:03:12;;;;;;;29.38;12.07;;;9.70;99.90;;;;;;5045100;28;20057;-71
2023/04/29 00:05:37;;;;;;;29.88;12.30;;;9.70;99.90;;;;;;5029342;28;20385;-73
2023/04/29 00:08:03;;;;;;;25.67;12.40;;;9.70;99.90;;;;;;5033433;28;20063;-71
2023/04/29 00:10:29;;;;;;;27.80;12.45;;;9.70;99.90;;;;;;5029745;28;20044;-71
2023/04/29 00:12:54;;;;;;;34.72;11.32;;;9.70;99.90;;;;;;5041429;28;20033;-71
2023/04/29 00:15:20;;;;;;;31.02;11.50;;;9.70;99.90;;;;;;5044634;28;20080;-71
2023/04/29 00:17:49;;;;;;;26.13;12.43;;;9.70;99.90;;;;;;5028166;28;20037;-72
2023/04/29 00:20:18;;;;;;;31.90;11.38;;;9.70;99.90;;;;;;5027495;28;20116;-71
2023/04/29 00:22:43;;;;;;;29.58;12.57;;;9.80;99.90;;;;;;5045885;28;20057;-71
2023/04/29 00:25:10;;;;;;;28.90;12.05;;;9.80;99.90;;;;;;5021803;28;20536;-72
2023/04/29 00:27:36;;;;;;;31.33;12.30;;;9.70;99.90;;;;;;5030577;28;20130;-70
2023/04/29 00:30:02;;;;;;;30.02;11.60;;;9.70;99.90;;;;;;5026679;28;20500;-71
2023/04/29 00:32:30;;;;;;;27.52;12.57;;;9.70;99.90;;;;;;5031000;28;20032;-71
2023/04/29 00:34:56;;;;;;;25.00;11.15;;;9.80;99.90;;;;;;5045159;28;20056;-72
2023/04/29 00:37:22;;;;;;;31.02;11.50;;;9.80;99.90;;;;;;5029031;28;20064;-72
2023/04/29 00:39:48;;;;;;;28.23;11.55;;;9.80;99.90;;;;;;5013792;28;20060;-70
2023/04/29 00:42:17;;;;;;;29.45;11.35;;;9.70;99.90;;;;;;5032713;28;20083;-70
2023/04/29 00:44:42;;;;;;;33.05;12.55;;;9.80;99.90;;;;;;5041524;28;20110;-72
2023/04/29 00:47:10;;;;;;;24.85;11.45;;;9.80;99.90;;;;;;5044599;28;20056;-72
2023/04/29 00:49:37;;;;;;;31.48;10.65;;;9.70;99.90;;;;;;5028976;28;20087;-69
2023/04/29 00:52:07;;;;;;;28.33;9.73;;;9.70;99.90;;;;;;5035140;28;20037;-70
2023/04/29 00:54:36;;;;;;;25.27;10.80;;;9.80;99.90;;;;;;5044786;28;20029;-71
2023/04/29 00:57:05;;;;;;;28.50;10.20;;;9.80;99.90;;;;;;5044638;28;20045;-70
2023/04/29 00:59:32;;;;;;;28.30;10.65;;;9.80;99.90;;;;;;5043846;28;20044;-70
2023/04/29 01:02:02;;;;;;;30.27;10.52;;;9.80;99.90;;;;;;5033891;28;20492;-72
2023/04/29 01:04:29;;;;;;;27.45;11.23;;;9.70;99.90;;;;;;5040599;28;20405;-70
2023/04/29 01:07:14;;;;;;;31.08;11.10;;;9.70;99.90;;;;;;5028791;28;20038;-70
2023/04/29 01:10:03;;;;;;;28.38;11.40;;;9.80;99.90;;;;;;5043363;28;20485;-70
2023/04/29 01:12:35;;;;;;;23.60;10.30;;;9.80;99.90;;;;;;5041970;28;20072;-70
2023/04/29 01:15:21;;;;;;;28.90;11.13;;;9.90;99.90;;;;;;5026727;28;20029;-75
2023/04/29 01:18:30;;;;;;;26.63;9.82;;;9.80;99.90;;;;;;5044911;28;20045;-69
2023/04/29 01:20:57;;;;;;;29.45;10.38;;;9.80;99.90;;;;;;5009283;28;20463;-71
2023/04/29 01:23:26;;;;;;;26.02;11.85;;;9.80;99.90;;;;;;5025824;28;20032;-72
2023/04/29 01:26:01;;;;;;;25.57;9.80;;;9.80;99.90;;;;;;5037383;28;20037;-71
2023/04/29 01:28:38;;;;;;;24.85;10.00;;;9.80;99.90;;;;;;5041462;28;20639;-70
2023/04/29 01:31:14;;;;;;;24.30;9.60;;;9.80;99.90;;;;;;5030576;28;20056;-72
2023/04/29 01:34:06;;;;;;;26.90;9.80;;;9.80;99.90;;;;;;5044831;28;20040;-70
2023/04/29 01:37:09;;;;;;;19.30;8.82;;;9.80;99.90;;;;;;5027791;28;20032;-70
2023/04/29 01:40:05;;;;;;;22.58;8.95;;;9.80;99.90;;;;;;5032228;28;20061;-71
2023/04/29 01:42:34;;;;;;;20.70;9.35;;;9.80;99.90;;;;;;5025309;28;20037;-70
2023/04/29 01:45:06;;;;;;;18.48;8.55;;;9.80;99.90;;;;;;5031020;28;20033;-70
2023/04/29 01:47:32;;;;;;;37.33;8.93;;;9.80;99.90;;;;;;5044208;28;20689;-70
2023/04/29 01:49:58;;;;;;;26.17;8.88;;;9.80;99.90;;;;;;5039755;28;20506;-74
2023/04/29 01:52:23;;;;;;;16.15;6.88;;;9.80;99.90;;;;;;5048095;28;20025;-71
2023/04/29 01:54:49;;;;;;;20.40;7.65;;;9.80;99.90;;;;;;5049311;28;20111;-70
2023/04/29 01:57:21;;;;;;;15.43;6.85;;;9.80;99.90;;;;;;5033159;28;20037;-70
2023/04/29 01:59:49;;;;;;;16.25;7.18;;;9.80;99.90;;;;;;5048109;28;20037;-70
2023/04/29 02:02:19;;;;;;;15.50;7.50;;;9.80;99.90;;;;;;5048235;28;20029;-71
2023/04/29 02:04:49;;;;;;;13.57;6.47;;;9.80;99.90;;;;;;5031677;28;20029;-69
2023/04/29 02:07:15;;;;;;;14.80;6.43;;;9.80;99.90;;;;;;5047572;28;20032;-72
2023/04/29 02:09:41;;;;;;;15.63;5.65;;;9.90;99.90;;;;;;5029728;28;20029;-71
2023/04/29 02:12:09;;;;;;;17.40;5.32;;;9.80;99.90;;;;;;5029906;28;20374;-73
2023/04/29 02:14:35;;;;;;;12.93;6.22;;;9.90;99.90;;;;;;5049210;28;20082;-70
2023/04/29 02:17:00;;;;;;;14.02;6.13;;;9.80;99.90;;;;;;5048629;28;20037;-70
2023/04/29 02:19:29;;;;;;;16.98;6.78;;;9.90;99.90;;;;;;5048083;28;20029;-71
2023/04/29 02:21:54;;;;;;;16.80;6.15;;;9.80;99.90;;;;;;5041304;28;20051;-70
2023/04/29 02:24:20;;;;;;;16.60;7.03;;;9.80;99.90;;;;;;5034456;28;20037;-70
2023/04/29 02:26:45;;;;;;;16.25;7.15;;;9.90;99.90;;;;;;5030909;28;20090;-72
2023/04/29 02:29:11;;;;;;;15.63;6.90;;;9.90;99.90;;;;;;5029322;28;20029;-71
2023/04/29 02:31:37;;;;;;;15.45;7.25;;;9.80;99.90;;;;;;5047384;28;20032;-70
2023/04/29 02:34:03;;;;;;;18.52;7.15;;;9.90;99.90;;;;;;5030883;28;20053;-70
2023/04/29 02:36:29;;;;;;;17.02;6.68;;;9.80;99.90;;;;;;5030710;28;20025;-70
2023/04/29 02:38:55;;;;;;;16.13;8.02;;;9.80;99.90;;;;;;5047813;28;20412;-70
2023/04/29 02:41:24;;;;;;;18.58;7.43;;;9.80;99.90;;;;;;5029802;28;20488;-72
2023/04/29 02:43:53;;;;;;;17.63;7.75;;;9.80;99.90;;;;;;5029414;28;20052;-70
2023/04/29 02:46:21;;;;;;;20.35;7.57;;;9.80;99.90;;;;;;5028732;28;20079;-70
2023/04/29 02:48:50;;;;;;;15.93;6.53;;;9.80;99.90;;;;;;5029250;28;20040;-71
2023/04/29 02:51:18;;;;;;;18.70;7.95;;;9.80;99.90;;;;;;5046452;28;20408;-71
2023/04/29 02:53:44;;;;;;;16.10;7.82;;;9.80;99.90;;;;;;5035230;28;20039;-70
2023/04/29 02:56:10;;;;;;;14.63;7.25;;;9.70;99.90;;;;;;5029431;28;20037;-70
2023/04/29 02:58:39;;;;;;;20.63;7.45;;;9.70;99.90;;;;;;5051473;28;20114;-70
2023/04/29 03:01:04;;;;;;;17.63;7.40;;;9.70;99.90;;;;;;5032495;28;20040;-70
2023/04/29 03:03:33;;;;;;;18.90;7.63;;;9.70;99.90;;;;;;5047511;28;20102;-70
2023/04/29 03:05:58;;;;;;;19.10;7.43;;;9.70;99.90;;;;;;5047898;28;20041;-71
2023/04/29 03:08:30;;;;;;;21.13;6.63;;;9.70;99.90;;;;;;5046560;28;20044;-72
2023/04/29 03:10:59;;;;;;;18.15;6.93;;;9.70;99.90;;;;;;5051077;28;20087;-71
2023/04/29 03:13:30;;;;;;;20.73;7.25;;;9.70;99.90;;;;;;5045839;28;20537;-70
2023/04/29 03:16:00;;;;;;;15.13;6.53;;;9.70;99.90;;;;;;5047061;28;20057;-71
2023/04/29 03:18:28;;;;;;;22.40;7.80;;;9.70;99.90;;;;;;5032244;28;20400;-71
2023/04/29 03:20:57;;;;;;;20.48;7.72;;;9.70;99.90;;;;;;5029819;28;20189;-71
2023/04/29 03:23:23;;;;;;;15.57;6.85;;;9.70;99.90;;;;;;5045631;28;20044;-70
2023/04/29 03:26:01;;;;;;;19.02;7.40;;;9.70;99.90;;;;;;5047162;28;20029;-70
2023/04/29 03:28:27;;;;;;;17.55;6.78;;;9.80;99.90;;;;;;5046436;28;20041;-70
2023/04/29 03:30:52;;;;;;;17.73;7.28;;;9.80;99.90;;;;;;5033648;28;20037;-70
2023/04/29 03:33:27;;;;;;;12.90;6.18;;;9.80;99.90;;;;;;5027963;28;20039;-70
2023/04/29 03:35:53;;;;;;;18.60;7.18;;;9.80;99.90;;;;;;5034676;28;20029;-71
2023/04/29 03:38:19;;;;;;;15.00;6.03;;;9.80;99.90;;;;;;5045815;28;20048;-70
2023/04/29 03:40:44;;;;;;;19.92;7.47;;;9.90;99.90;;;;;;5030513;28;20675;-70
2023/04/29 03:43:12;;;;;;;19.33;6.60;;;9.80;99.90;;;;;;5045641;28;20505;-70
2023/04/29 03:45:38;;;;;;;20.48;7.43;;;9.80;99.90;;;;;;5028022;28;20045;-70
2023/04/29 03:48:04;;;;;;;16.90;6.40;;;9.80;99.90;;;;;;5046056;28;20095;-71
2023/04/29 03:50:32;;;;;;;12.73;6.60;;;9.80;99.90;;;;;;5033466;28;20041;-71
2023/04/29 03:52:58;;;;;;;18.00;7.80;;;9.90;99.90;;;;;;5038281;28;20086;-70
2023/04/29 03:55:23;;;;;;;18.80;7.20;;;9.90;99.90;;;;;;5045414;28;20025;-71
2023/04/29 03:57:49;;;;;;;13.30;6.30;;;9.80;99.90;;;;;;5044903;28;20025;-70
2023/04/29 04:00:15;;;;;;;18.73;6.53;;;9.90;99.90;;;;;;5027103;28;20033;-72
2023/04/29 04:02:41;;;;;;;19.30;7.22;;;9.80;99.90;;;;;;5046462;28;20136;-72
2023/04/29 04:05:07;;;;;;;14.45;6.55;;;9.80;99.90;;;;;;5045581;28;20116;-71
2023/04/29 04:07:32;;;;;;;17.42;7.05;;;9.90;99.90;;;;;;5046122;28;20037;-71
2023/04/29 04:10:01;;;;;;;19.20;6.82;;;9.90;99.90;;;;;;5037428;28;20094;-70
2023/04/29 04:12:26;;;;;;;14.88;6.45;;;9.90;99.90;;;;;;5028973;28;20040;-70
2023/04/29 04:14:56;;;;;;;17.48;7.30;;;9.90;99.90;;;;;;5045933;28;20044;-70
2023/04/29 04:17:27;;;;;;;17.80;7.38;;;9.90;99.90;;;;;;5044750;28;20132;-70
2023/04/29 04:19:56;;;;;;;14.52;6.65;;;9.90;99.90;;;;;;5045025;28;20033;-70
2023/04/29 04:22:22;;;;;;;16.00;6.72;;;9.90;99.90;;;;;;5044546;28;22603;-70
2023/04/29 04:24:50;;;;;;;13.50;6.55;;;9.90;99.90;;;;;;5034324;28;20029;-70
2023/04/29 04:27:16;;;;;;;20.92;7.80;;;9.90;99.90;;;;;;5021172;28;20086;-71
2023/04/29 04:29:41;;;;;;;18.27;7.65;;;9.90;99.90;;;;;;5045428;28;20033;-71
2023/04/29 04:32:07;;;;;;;17.75;6.93;;;9.90;99.90;;;;;;5044992;28;20079;-72
2023/04/29 04:34:38;;;;;;;20.75;7.50;;;9.90;99.90;;;;;;5046013;28;20040;-71
2023/04/29 04:37:04;;;;;;;13.85;6.80;;;9.90;99.90;;;;;;5044264;28;20037;-71
2023/04/29 04:39:29;;;;;;;18.45;7.05;;;9.90;99.90;;;;;;5033380;28;20078;-71
2023/04/29 04:41:55;;;;;;;16.73;6.65;;;9.90;99.90;;;;;;5045795;28;20041;-72
2023/04/29 04:44:20;;;;;;;20.98;6.78;;;9.90;99.90;;;;;;5044625;28;20025;-70
2023/04/29 04:46:46;;;;;;;15.52;7.18;;;9.90;99.90;;;;;;5045507;28;20552;-72
2023/04/29 04:49:11;;;;;;;19.40;7.72;;;9.90;99.90;;;;;;5032889;28;20048;-71
2023/04/29 04:51:37;;;;;;;15.35;7.18;;;9.90;99.90;;;;;;5030350;28;20059;-71
2023/04/29 04:54:02;;;;;;;14.93;6.70;;;10.00;99.90;;;;;;5044984;28;20064;-70
2023/04/29 04:56:28;;;;;;;15.13;6.90;;;9.90;99.90;;;;;;5044947;28;20510;-70
2023/04/29 04:58:57;;;;;;;14.02;6.60;;;9.90;99.90;;;;;;5042722;28;20091;-72
2023/04/29 05:01:29;;;;;;;19.05;7.65;;;9.90;99.90;;;;;;5035687;28;20539;-70
2023/04/29 05:03:54;;;;;;;15.05;7.05;;;9.90;99.90;;;;;;5027545;28;20037;-70
2023/04/29 05:06:20;;;;;;;19.38;7.50;;;10.00;99.90;;;;;;5030613;28;20040;-71
2023/04/29 05:08:45;;;;;;;21.40;6.60;;;10.00;99.90;;;;;;5031432;28;20040;-69
2023/04/29 05:11:18;;;;;;;21.90;6.38;;;10.00;99.90;;;;;;5029570;28;20049;-70
2023/04/29 05:13:44;;;;;;;17.92;7.55;;;10.00;99.90;;;;;;5029958;28;20037;-70
2023/04/29 05:16:09;;;;;;;18.95;7.90;;;10.00;99.90;;;;;;5044089;28;20040;-70
2023/04/29 05:18:35;;;;;;;17.38;7.45;;;10.00;99.90;;;;;;5027497;28;20147;-70
2023/04/29 05:21:00;;;;;;;22.63;7.53;;;10.00;99.90;;;;;;5027651;28;20076;-70
2023/04/29 05:23:35;;;;;;;14.90;6.32;;;10.00;99.90;;;;;;5044364;28;20485;-69
2023/04/29 05:26:01;;;;;;;14.98;6.43;;;10.10;99.90;;;;;;5051776;28;20802;-69
2023/04/29 05:28:26;;;;;;;15.55;6.88;;;10.10;99.90;;;;;;5051490;28;20041;-70
2023/04/29 05:30:52;;;;;;;16.30;6.88;;;10.10;99.90;;;;;;5039907;28;20033;-70
2023/04/29 05:33:21;;;;;;;20.52;7.25;;;10.10;99.90;;;;;;5036157;28;20101;-70
2023/04/29 05:35:49;;;;;;;19.38;7.50;;;10.10;99.90;;;;;;5050369;28;20044;-70
2023/04/29 05:38:15;;;;;;;18.38;6.68;;;10.10;99.90;;;;;;5050814;28;20025;-71
2023/04/29 05:40:40;;;;;;;14.00;6.63;;;10.00;99.90;;;;;;5036472;28;20615;-70
2023/04/29 05:43:06;;;;;;;21.38;7.18;;;10.10;99.90;;;;;;5051272;28;20744;-71
2023/04/29 05:45:32;;;;;;;15.35;7.07;;;10.10;99.90;;;;;;5049865;28;20485;-70
2023/04/29 05:48:03;;;;;;;18.45;7.18;;;10.20;99.90;;;;;;5050324;28;20113;-69
2023/04/29 05:50:29;;;;;;;16.50;7.00;;;10.30;99.90;;;;;;5050309;28;20044;-70
2023/04/29 05:52:55;;;;;;;19.45;7.72;;;10.30;99.90;;;;;;5051458;28;20029;-69
2023/04/29 05:55:24;;;;;;;12.90;6.32;;;10.40;99.90;;;;;;5032581;28;20033;-70
2023/04/29 05:57:50;;;;;;;16.70;7.05;;;10.40;99.90;;;;;;5036285;28;20045;-69
2023/04/29 06:00:15;;;;;;;20.10;7.28;;;10.50;99.90;;;;;;5050309;28;20033;-70
2023/04/29 06:02:42;;;;;;;17.13;5.65;;;10.50;99.90;;;;;;5037551;28;20035;-70
2023/04/29 06:05:07;;;;;;;14.82;6.15;;;10.50;99.90;;;;;;5042816;28;20107;-72
2023/04/29 06:07:36;;;;;;;16.25;5.70;;;10.70;99.90;;;;;;5061789;28;20479;-71
2023/04/29 06:10:02;;;;;;;14.77;5.93;;;10.80;99.90;;;;;;5033504;28;20103;-71
2023/04/29 06:12:28;;;;;;;16.58;7.15;;;10.90;99.90;;;;;;5033131;28;20120;-70
2023/04/29 06:14:53;;;;;;;21.58;5.95;;;10.90;99.90;;;;;;5058141;28;20695;-71
2023/04/29 06:17:19;;;;;;;11.98;5.88;;;10.90;99.90;;;;;;5032494;28;20090;-71
2023/04/29 06:19:48;;;;;;;14.13;6.07;;;11.00;99.90;;;;;;5049894;28;20123;-70
2023/04/29 06:22:13;;;;;;;15.07;5.50;;;11.00;99.90;;;;;;5050809;28;20029;-70
2023/04/29 06:24:39;;;;;;;14.57;5.55;;;10.90;99.90;;;;;;5041907;28;20048;-71
2023/04/29 06:27:04;;;;;;;12.82;5.90;;;10.90;99.90;;;;;;5051386;28;20029;-71
2023/04/29 06:29:33;;;;;;;14.90;6.60;;;10.90;99.90;;;;;;5036113;28;20056;-69
2023/04/29 06:31:58;;;;;;;18.73;7.35;;;10.90;99.90;;;;;;5035558;28;20060;-69
2023/04/29 06:34:24;;;;;;;15.35;5.60;;;10.90;99.90;;;;;;5048721;28;20559;-71
2023/04/29 06:36:49;;;;;;;16.73;6.25;;;10.90;99.90;;;;;;5031867;28;20060;-71
2023/04/29 06:39:15;;;;;;;16.25;6.30;;;10.90;99.90;;;;;;5027951;28;20409;-70
2023/04/29 06:41:41;;;;;;;15.93;6.40;;;11.10;99.90;;;;;;5047122;28;20685;-70
2023/04/29 06:44:07;;;;;;;14.93;5.70;;;11.10;99.90;;;;;;5041427;28;20053;-72
2023/04/29 06:46:33;;;;;;;16.73;6.57;;;11.30;99.90;;;;;;5046340;28;20492;-70
2023/04/29 06:49:01;;;;;;;14.52;4.55;;;11.80;99.90;;;;;;5044404;28;20493;-69
2023/04/29 06:51:27;;;;;;;11.63;5.30;;;12.90;99.90;;;;;;5038125;28;20127;-71
2023/04/29 06:53:53;;;;;;;19.23;4.88;;;14.60;99.90;;;;;;5044231;28;20025;-70
2023/04/29 06:56:19;;;;;;;14.40;3.92;;;16.10;99.90;;;;;;5043241;28;20040;-70
2023/04/29 06:58:45;;;;;;;10.00;4.25;;;17.00;99.90;;;;;;5043908;28;20029;-71
2023/04/29 07:01:10;;;;;;;10.60;3.83;;;17.10;99.90;;;;;;5043428;28;20040;-70
2023/04/29 07:03:36;;;;;;;7.88;3.80;;;16.40;99.90;;;;;;5028123;28;20392;-71
2023/04/29 07:06:05;;;;;;;14.02;3.80;;;15.70;99.90;;;;;;5028410;28;20037;-69
2023/04/29 07:08:33;;;;;;;8.40;4.10;;;15.10;99.90;;;;;;5042322;28;20120;-70
2023/04/29 07:10:59;;;;;;;9.32;4.50;;;14.60;99.90;;;;;;5043681;28;20033;-71
2023/04/29 07:13:28;;;;;;;12.57;4.00;;;14.00;99.90;;;;;;5041676;28;20098;-70
2023/04/29 07:15:57;;;;;;;16.83;4.65;;;13.80;99.90;;;;;;5018002;28;20037;-70
2023/04/29 07:18:22;;;;;;;9.98;5.00;;;13.60;99.90;;;;;;5025157;28;20620;-70
2023/04/29 07:20:50;;;;;;;11.40;3.97;;;13.50;99.90;;;;;;5041857;28;20025;-70
2023/04/29 07:23:18;;;;;;;12.60;3.80;;;13.30;99.90;;;;;;5027049;28;20109;-71
2023/04/29 07:25:44;;;;;;;10.32;4.07;;;13.30;99.90;;;;;;5041064;28;20045;-71
2023/04/29 07:28:09;;;;;;;13.65;4.65;;;13.50;99.90;;;;;;5042177;28;20029;-71
2023/04/29 07:30:35;;;;;;;12.55;4.30;;;13.70;99.90;;;;;;5044067;28;20044;-70
2023/04/29 07:33:01;;;;;;;14.00;4.78;;;13.60;99.90;;;;;;5026357;28;20056;-69
2023/04/29 07:35:27;;;;;;;7.68;3.53;;;13.50;99.90;;;;;;5042876;28;20295;-69
2023/04/29 07:37:53;;;;;;;10.90;3.88;;;13.60;99.90;;;;;;5043645;28;20044;-72
2023/04/29 07:40:18;;;;;;;12.02;3.53;;;13.30;99.90;;;;;;5027428;28;20030;-70
2023/04/29 07:42:44;;;;;;;13.18;4.25;;;13.30;99.90;;;;;;5044193;28;20056;-71
2023/04/29 07:45:10;;;;;;;10.13;4.43;;;13.40;99.90;;;;;;5043198;28;20435;-69
2023/04/29 07:47:36;;;;;;;11.95;3.47;;;13.40;99.90;;;;;;5043713;28;20127;-71
2023/04/29 07:50:02;;;;;;;12.52;4.55;;;13.50;99.90;;;;;;5024996;28;20470;-71
2023/04/29 07:52:30;;;;;;;11.82;3.70;;;13.60;99.90;;;;;;5031380;28;20053;-72
2023/04/29 07:54:56;;;;;;;12.25;3.75;;;13.40;99.90;;;;;;5027528;28;20075;-69
2023/04/29 07:57:21;;;;;;;9.73;3.53;;;13.60;99.90;;;;;;5029082;28;20562;-72
2023/04/29 07:59:51;;;;;;;8.32;3.70;;;13.60;99.90;;;;;;5045885;28;20025;-70
2023/04/29 08:02:17;;;;;;;12.88;4.07;;;13.60;99.90;;;;;;5045389;28;20029;-71
2023/04/29 08:04:42;;;;;;;10.18;3.90;;;13.50;99.90;;;;;;5046279;28;20082;-69
2023/04/29 08:07:08;;;;;;;8.98;3.97;;;13.60;99.90;;;;;;5044968;28;20064;-71
2023/04/29 08:09:33;;;;;;;11.55;4.05;;;13.60;99.90;;;;;;5045763;28;20037;-71
2023/04/29 08:12:00;;;;;;;11.15;4.18;;;13.70;99.90;;;;;;5046252;28;20473;-70
2023/04/29 08:14:26;;;;;;;12.00;4.20;;;13.70;99.90;;;;;;5028899;28;20056;-71
2023/04/29 08:16:53;;;;;;;8.90;3.95;;;13.80;99.90;;;;;;5028898;28;20083;-70
2023/04/29 08:19:19;;;;;;;10.05;3.60;;;13.80;99.90;;;;;;5044822;28;20024;-70
2023/04/29 08:21:46;;;;;;;10.27;3.85;;;14.00;99.90;;;;;;5019846;28;20131;-70
2023/04/29 08:24:12;;;;;;;9.68;3.58;;;14.00;99.90;;;;;;5033121;28;20124;-70
2023/04/29 08:26:39;;;;;;;11.15;4.20;;;14.00;99.90;;;;;;5045475;28;20433;-70
2023/04/29 08:29:05;;;;;;;10.85;3.95;;;14.10;99.90;;;;;;5027127;28;20032;-70
2023/04/29 08:31:31;;;;;;;10.05;3.92;;;14.20;99.90;;;;;;5045013;28;20029;-70
2023/04/29 08:33:57;;;;;;;7.57;3.70;;;14.30;99.90;;;;;;5045409;28;20036;-69
2023/04/29 08:36:23;;;;;;;12.23;3.03;;;14.30;99.90;;;;;;5044408;28;20037;-70
2023/04/29 08:38:51;;;;;;;8.40;3.40;;;14.40;99.90;;;;;;5043879;28;20033;-69
2023/04/29 08:41:24;;;;;;;9.02;3.63;;;14.50;99.90;;;;;;5038518;28;20205;-71
2023/04/29 08:43:53;;;;;;;8.50;3.40;;;14.40;99.90;;;;;;5045352;28;20029;-71
2023/04/29 08:46:19;;;;;;;12.05;4.03;;;14.30;99.90;;;;;;5031776;28;20656;-69
2023/04/29 08:48:45;;;;;;;7.35;3.72;;;14.40;99.90;;;;;;5045437;28;20120;-69
2023/04/29 08:51:14;;;;;;;9.45;3.20;;;14.40;99.90;;;;;;5032437;28;20553;-71
2023/04/29 08:53:40;;;;;;;7.63;3.10;;;14.50;99.90;;;;;;5035965;28;20036;-70
2023/04/29 08:56:15;;;;;;;11.63;3.63;;;14.50;99.90;;;;;;5027663;28;20037;-69
2023/04/29 08:58:42;;;;;;;9.65;3.53;;;14.40;99.90;;;;;;5026598;28;20053;-69
2023/04/29 09:01:11;;;;;;;6.53;2.65;;;14.30;99.90;;;;;;5026992;28;20124;-69
2023/04/29 09:03:49;;;;;;;8.27;3.70;;;14.30;99.90;;;;;;5035002;28;20076;-69
2023/04/29 09:06:16;;;;;;;8.27;2.70;;;14.40;99.90;;;;;;5028592;28;20029;-70
2023/04/29 09:08:41;;;;;;;5.90;3.08;;;14.40;99.90;;;;;;5044747;28;20497;-68
2023/04/29 09:11:11;;;;;;;4.82;2.53;;;14.40;99.90;;;;;;5045369;28;20039;-70
2023/04/29 09:13:37;;;;;;;6.77;2.50;;;14.50;99.90;;;;;;5044864;28;20568;-69
2023/04/29 09:16:03;;;;;;;7.93;2.60;;;14.40;99.90;;;;;;5043781;28;20362;-70
2023/04/29 09:18:43;;;;;;;4.68;2.47;;;14.30;99.90;;;;;;5044179;28;20907;-69
2023/04/29 09:21:26;;;;;;;8.38;2.53;;;14.30;99.90;;;;;;5025254;28;20044;-70
2023/04/29 09:23:57;;;;;;;6.35;2.80;;;14.40;99.90;;;;;;5030789;28;20400;-69
2023/04/29 09:26:23;;;;;;;;;;;14.50;99.90;;;;;;5042278;28;20032;-69
2023/04/29 09:29:12;;;;;;;8.48;2.08;;;14.70;99.90;;;;;;5026648;28;20462;-68
2023/04/29 09:31:39;;;;;;;7.35;2.20;;;14.80;99.90;;;;;;5027868;28;20041;-69
2023/04/29 09:34:05;;;;;;;8.05;2.42;;;14.60;99.90;;;;;;5043513;28;20062;-70
2023/04/29 09:36:44;;;;;;;5.30;2.22;;;14.70;99.90;;;;;;5025866;28;20071;-69
2023/04/29 09:39:17;;;;;;;9.23;2.28;;;14.70;99.90;;;;;;5018788;28;20115;-69
2023/04/29 09:41:52;;;;;;;5.25;2.70;;;14.70;99.90;;;;;;5042287;28;20079;-69
2023/04/29 09:44:32;;;;;;;7.65;3.17;;;14.60;99.90;;;;;;5026111;28;20037;-69
2023/04/29 09:47:08;;;;;;;6.28;2.88;;;14.40;99.90;;;;;;5042101;28;20114;-71
2023/04/29 09:49:36;;;;;;;5.40;2.22;;;14.50;99.90;;;;;;5040763;28;20115;-69
2023/04/29 09:52:11;;;;;;;9.35;3.30;;;14.60;99.90;;;;;;5042752;28;20024;-69
2023/04/29 09:54:38;;;;;;;9.27;2.90;;;14.80;99.90;;;;;;5040424;28;20034;-70
2023/04/29 09:57:05;;;;;;;7.85;3.00;;;14.90;99.90;;;;;;5022437;28;20029;-74
2023/04/29 09:59:36;;;;;;;8.07;2.53;;;14.90;99.90;;;;;;5027375;28;20029;-69
2023/04/29 10:02:21;;;;;;;7.72;2.72;;;15.00;99.90;;;;;;5042592;28;20040;-68
2023/04/29 10:04:56;;;;;;;6.82;2.25;;;15.10;99.90;;;;;;5027976;28;20107;-69
2023/04/29 10:07:31;;;;;;;5.70;2.33;;;15.30;99.90;;;;;;5031919;28;20029;-68
2023/04/29 10:10:04;;;;;;;6.45;2.58;;;15.30;99.90;;;;;;5039418;28;20037;-69
2023/04/29 10:12:34;;;;;;;9.43;2.42;;;15.30;99.90;;;;;;5040032;28;20053;-70
2023/04/29 10:15:06;;;;;;;11.07;2.92;;;15.20;99.90;;;;;;5050759;28;20095;-70
2023/04/29 10:17:53;;;;;;;7.13;2.92;;;15.20;99.90;;;;;;5046074;28;20058;-70
2023/04/29 10:20:22;;;;;;;6.15;2.00;;;15.20;99.90;;;;;;5031455;28;20044;-70
2023/04/29 10:22:58;;;;;;;4.25;2.00;;;15.20;99.90;;;;;;5047639;28;20033;-70
2023/04/29 10:25:28;;;;;;;8.70;2.97;;;15.20;99.90;;;;;;5045601;28;20446;-70
2023/04/29 10:27:54;;;;;;;5.07;2.13;;;15.30;99.90;;;;;;5025463;28;20037;-70
2023/04/29 10:30:21;;;;;;;6.70;2.28;;;15.20;99.90;;;;;;5029987;28;20045;-68
2023/04/29 10:32:53;;;;;;;8.43;2.35;;;15.00;99.90;;;;;;5046632;28;20036;-69
2023/04/29 10:35:22;;;;;;;7.63;2.15;;;15.10;99.90;;;;;;5031771;28;20501;-69
2023/04/29 10:37:48;;;;;;;8.70;2.08;;;15.10;99.90;;;;;;5046816;28;20044;-69
2023/04/29 10:40:15;;;;;;;6.53;2.25;;;15.20;99.90;;;;;;5045294;28;20770;-70
2023/04/29 10:42:50;;;;;;;4.40;1.85;;;15.20;99.90;;;;;;5046395;28;20672;-71
2023/04/29 10:45:33;;;;;;;5.45;1.88;;;15.30;99.90;;;;;;5027180;28;20149;-70
2023/04/29 10:48:25;;;;;;;4.25;1.88;;;15.30;99.90;;;;;;5034688;28;20029;-69
2023/04/29 10:50:56;;;;;;;4.70;1.90;;;15.30;99.90;;;;;;5036972;28;20513;-70
2023/04/29 10:53:26;;;;;;;5.32;2.00;;;15.40;99.90;;;;;;5045677;28;20118;-69
2023/04/29 10:55:55;;;;;;;3.25;2.00;;;15.50;99.90;;;;;;5042426;28;20041;-69
2023/04/29 10:58:34;;;;;;;2.63;1.48;;;15.40;99.90;;;;;;5025771;28;20073;-70
2023/04/29 11:01:00;;;;;;;5.23;1.60;;;15.50;99.90;;;;;;5021141;28;20528;-70
2023/04/29 11:03:45;;;;;;;4.38;1.30;;;15.60;99.90;;;;;;5031095;28;20083;-70
2023/04/29 11:06:11;;;;;;;6.63;1.63;;;15.80;99.90;;;;;;5027098;28;20037;-70
2023/04/29 11:08:38;;;;;;;5.13;1.50;;;15.80;99.90;;;;;;5031531;28;20037;-70
2023/04/29 11:11:05;;;;;;;3.58;1.63;;;15.90;99.90;;;;;;5023993;28;20685;-70
2023/04/29 11:13:44;;;;;;;5.68;2.28;;;16.00;99.90;;;;;;5034577;28;20036;-70
2023/04/29 11:16:11;;;;;;;8.07;2.03;;;16.00;99.90;;;;;;5045447;28;20102;-73
2023/04/29 11:19:07;;;;;;;5.63;1.67;;;16.00;99.90;;;;;;5046922;28;20464;-73
2023/04/29 11:21:34;;;;;;;4.10;1.88;;;16.00;99.90;;;;;;5043672;28;20029;-71
2023/04/29 11:24:00;;;;;;;4.10;1.80;;;15.90;99.90;;;;;;5035387;28;20041;-71
2023/04/29 11:26:25;;;;;;;3.20;1.40;;;15.90;99.90;;;;;;5045700;28;20144;-71
2023/04/29 11:28:52;;;;;;;7.28;2.63;;;16.00;99.90;;;;;;5034401;28;20559;-71
2023/04/29 11:31:18;;;;;;;6.47;2.60;;;15.90;99.90;;;;;;5042579;28;20489;-70
2023/04/29 11:33:45;;;;;;;3.45;1.67;;;15.80;99.90;;;;;;5036934;28;20037;-71
2023/04/29 11:36:11;;;;;;;3.92;1.80;;;15.90;99.90;;;;;;5045563;28;20029;-71
2023/04/29 11:38:40;;;;;;;4.47;1.77;;;15.90;99.90;;;;;;5046229;28;20055;-71
2023/04/29 11:41:05;;;;;;;8.15;2.95;;;16.00;99.90;;;;;;5036207;28;20591;-73
2023/04/29 11:43:38;;;;;;;3.80;1.90;;;15.90;99.90;;;;;;5046996;28;20029;-70
2023/04/29 11:46:14;;;;;;;4.40;1.95;;;15.80;99.90;;;;;;5046846;28;20486;-70
2023/04/29 11:48:47;;;;;;;4.85;2.10;;;15.80;99.90;;;;;;5046376;28;20053;-71
2023/04/29 11:51:13;;;;;;;4.65;1.55;;;15.80;99.90;;;;;;5046360;28;20073;-72
2023/04/29 11:53:39;;;;;;;4.63;1.80;;;15.70;99.90;;;;;;5046649;28;20029;-71
2023/04/29 11:56:05;;;;;;;5.60;2.00;;;15.70;99.90;;;;;;5047146;28;20676;-71
2023/04/29 11:58:31;;;;;;;5.15;2.40;;;15.80;99.90;;;;;;5045573;28;20120;-71
2023/04/29 12:00:57;;;;;;;5.63;2.60;;;15.80;99.90;;;;;;5045316;28;20148;-70
2023/04/29 12:03:23;;;;;;;6.47;2.35;;;15.80;99.90;;;;;;5045241;28;20037;-70
2023/04/29 12:05:55;;;;;;;6.65;1.80;;;15.80;99.90;;;;;;5031773;28;20544;-71
2023/04/29 12:08:25;;;;;;;5.95;1.58;;;15.70;99.90;;;;;;5042932;28;20044;-71
2023/04/29 12:10:53;;;;;;;3.45;1.60;;;15.70;99.90;;;;;;5027604;28;20370;-71
2023/04/29 12:13:21;;;;;;;5.00;1.67;;;15.70;99.90;;;;;;5034394;28;20052;-71
2023/04/29 12:15:49;;;;;;;3.88;1.63;;;15.70;99.90;;;;;;5040718;28;20072;-71
2023/04/29 12:18:16;;;;;;;5.95;1.70;;;15.70;99.90;;;;;;5032690;28;20513;-72
2023/04/29 12:20:43;;;;;;;2.90;1.80;;;15.70;99.90;;;;;;5037376;28;20316;-70
2023/04/29 12:23:14;;;;;;;6.43;2.45;;;15.80;99.90;;;;;;5026077;28;20083;-71
2023/04/29 12:25:51;;;;;;;4.85;1.65;;;15.70;99.90;;;;;;5044723;28;20037;-71
2023/04/29 12:28:20;;;;;;;3.63;1.88;;;15.70;99.90;;;;;;5029429;28;20405;-70
2023/04/29 12:30:47;;;;;;;8.43;2.47;;;15.70;99.90;;;;;;5022915;28;20525;-70
2023/04/29 12:33:27;;;;;;;5.53;1.83;;;15.70;99.90;;;;;;5041742;28;20437;-69
2023/04/29 12:35:56;;;;;;;5.43;1.95;;;15.80;99.90;;;;;;5042467;28;20485;-71
2023/04/29 12:38:31;;;;;;;4.75;1.98;;;15.70;99.90;;;;;;5043774;28;20136;-70
2023/04/29 12:41:04;;;;;;;5.75;1.80;;;15.80;99.90;;;;;;5045000;28;20044;-71
2023/04/29 12:43:32;;;;;;;3.72;1.35;;;15.80;99.90;;;;;;5029728;28;20069;-70
2023/04/29 12:46:09;;;;;;;3.08;1.48;;;15.80;99.80;;;;;;5044387;28;20493;-70
2023/04/29 12:48:37;;;;;;;5.43;1.45;;;15.80;98.80;;;;;;5041950;28;20044;-71
2023/04/29 12:51:03;;;;;;;2.63;1.23;;;15.80;98.90;;;;;;5043790;28;20048;-71